createdAt,value
2018-08-10T00:00:31.035Z,99.90
2018-08-10T00:02:59.952Z,99.90
2018-08-10T00:05:28.505Z,99.90
2018-08-10T00:07:57.066Z,99.90
2018-08-10T00:10:25.609Z,99.90
2018-08-10T00:12:54.260Z,99.90
2018-08-10T00:15:22.840Z,99.90
2018-08-10T00:17:51.366Z,99.90
2018-08-10T00:20:19.915Z,99.90
2018-08-10T00:22:48.430Z,99.90
2018-08-10T00:25:18.121Z,99.90
2018-08-10T00:27:46.707Z,99.90
2018-08-10T00:30:18.782Z,99.90
2018-08-10T00:32:49.379Z,99.90
2018-08-10T00:35:18.037Z,99.90
2018-08-10T00:37:47.916Z,99.90
2018-08-10T00:40:22.925Z,99.90
2018-08-10T00:42:51.634Z,99.90
2018-08-10T00:45:20.698Z,99.90
2018-08-10T00:47:49.793Z,99.90
2018-08-10T00:50:18.820Z,99.90
2018-08-10T00:52:48.302Z,99.90
2018-08-10T00:55:17.915Z,99.90
2018-08-10T00:57:47.165Z,99.90
2018-08-10T01:00:21.055Z,99.90
2018-08-10T01:02:49.817Z,99.90
2018-08-10T01:05:18.416Z,99.90
2018-08-10T01:07:47.018Z,99.90
2018-08-10T01:10:17.430Z,99.90
2018-08-10T01:12:46.084Z,99.90
2018-08-10T01:15:15.899Z,99.90
2018-08-10T01:17:45.409Z,99.90
2018-08-10T01:20:19.429Z,99.90
2018-08-10T01:22:53.470Z,99.90
2018-08-10T01:25:23.582Z,99.90
2018-08-10T01:28:00.561Z,99.90
2018-08-10T01:30:30.248Z,99.90
2018-08-10T01:32:59.446Z,99.90
2018-08-10T01:35:28.566Z,99.90
2018-08-10T01:37:58.372Z,99.90
2018-08-10T01:40:27.146Z,99.90
2018-08-10T01:42:55.748Z,99.90
2018-08-10T01:45:24.249Z,99.90
2018-08-10T01:47:53.040Z,99.90
2018-08-10T01:50:21.628Z,99.90
2018-08-10T01:52:50.154Z,99.90
2018-08-10T01:55:18.737Z,99.90
2018-08-10T01:57:47.340Z,99.90
2018-08-10T02:00:15.897Z,99.90
2018-08-10T02:02:44.430Z,99.90
2018-08-10T02:05:14.144Z,99.90
2018-08-10T02:07:43.269Z,99.90
2018-08-10T02:10:13.861Z,99.90
2018-08-10T02:12:43.399Z,99.90
2018-08-10T02:15:15.109Z,99.90
2018-08-10T02:17:43.720Z,99.90
2018-08-10T02:20:13.829Z,99.90
2018-08-10T02:22:42.500Z,99.90
2018-08-10T02:25:12.557Z,99.90
2018-08-10T02:27:42.250Z,99.90
2018-08-10T02:30:12.369Z,99.90
2018-08-10T02:32:41.868Z,99.90
2018-08-10T02:35:10.459Z,99.90
2018-08-10T02:37:39.608Z,99.90
2018-08-10T02:40:15.719Z,99.90
2018-08-10T02:42:45.513Z,99.90
2018-08-10T02:45:14.500Z,99.90
2018-08-10T02:47:43.092Z,99.90
2018-08-10T02:50:11.670Z,99.90
2018-08-10T02:52:40.253Z,99.90
2018-08-10T02:55:10.057Z,99.90
2018-08-10T02:57:39.062Z,99.90
2018-08-10T03:00:09.682Z,99.90
2018-08-10T03:02:38.218Z,99.90
2018-08-10T03:05:07.813Z,99.90
2018-08-10T03:07:36.669Z,99.90
2018-08-10T03:10:06.587Z,99.90
2018-08-10T03:12:35.137Z,99.90
2018-08-10T03:15:03.754Z,99.90
2018-08-10T03:17:32.358Z,99.90
2018-08-10T03:20:00.925Z,99.90
2018-08-10T03:22:29.442Z,99.90
2018-08-10T03:24:57.974Z,99.90
2018-08-10T03:27:26.550Z,99.90
2018-08-10T03:29:55.086Z,99.90
2018-08-10T03:32:23.755Z,99.90
2018-08-10T03:34:52.336Z,99.90
2018-08-10T03:37:20.852Z,99.90
2018-08-10T03:39:49.364Z,99.90
2018-08-10T03:42:17.862Z,99.90
2018-08-10T03:44:46.376Z,99.90
2018-08-10T03:47:14.944Z,99.90
2018-08-10T03:49:43.537Z,99.90
2018-08-10T03:52:12.121Z,99.90
2018-08-10T03:54:40.683Z,99.90
2018-08-10T03:57:09.194Z,99.90
2018-08-10T03:59:37.787Z,99.90
2018-08-10T04:02:06.460Z,99.90
2018-08-10T04:04:35.146Z,99.90
2018-08-10T04:07:03.675Z,99.90
2018-08-10T04:09:32.223Z,99.90
2018-08-10T04:12:00.748Z,99.90
2018-08-10T04:14:29.273Z,99.90
2018-08-10T04:16:57.818Z,99.90
2018-08-10T04:19:26.350Z,99.90
2018-08-10T04:21:54.889Z,99.90
2018-08-10T04:24:23.454Z,99.90
2018-08-10T04:26:52.001Z,99.90
2018-08-10T04:29:20.545Z,99.90
2018-08-10T04:31:49.094Z,99.90
2018-08-10T04:34:18.232Z,99.90
2018-08-10T04:36:46.773Z,99.90
2018-08-10T04:39:15.346Z,99.90
2018-08-10T04:41:43.921Z,99.90
2018-08-10T04:44:13.297Z,99.90
2018-08-10T04:46:41.849Z,99.90
2018-08-10T04:49:10.389Z,99.90
2018-08-10T04:51:39.027Z,99.90
2018-08-10T04:54:08.069Z,99.90
2018-08-10T04:56:36.601Z,99.90
2018-08-10T04:59:05.297Z,99.90
2018-08-10T05:01:33.840Z,99.90
2018-08-10T05:04:02.407Z,99.90
2018-08-10T05:06:30.918Z,99.90
2018-08-10T05:08:59.463Z,99.90
2018-08-10T05:11:27.997Z,99.90
2018-08-10T05:13:56.525Z,99.90
2018-08-10T05:16:25.098Z,99.90
2018-08-10T05:18:54.111Z,99.90
2018-08-10T05:21:22.628Z,99.90
2018-08-10T05:23:51.200Z,99.90
2018-08-10T05:26:19.724Z,99.90
2018-08-10T05:28:48.223Z,99.90
2018-08-10T05:31:16.768Z,99.90
2018-08-10T05:33:45.520Z,99.90
2018-08-10T05:36:14.307Z,99.90
2018-08-10T05:38:42.842Z,99.90
2018-08-10T05:41:11.776Z,99.90
2018-08-10T05:43:40.794Z,99.90
2018-08-10T05:46:09.582Z,99.90
2018-08-10T05:48:41.239Z,99.90
2018-08-10T05:51:12.586Z,99.90
2018-08-10T05:53:41.604Z,99.90
2018-08-10T05:56:10.554Z,99.90
2018-08-10T05:58:39.391Z,99.90
2018-08-10T06:01:08.143Z,99.90
2018-08-10T06:03:36.687Z,99.90
2018-08-10T06:06:05.245Z,99.90
2018-08-10T06:08:33.742Z,99.90
2018-08-10T06:11:02.264Z,99.90
2018-08-10T06:13:30.785Z,99.90
2018-08-10T06:15:59.323Z,99.90
2018-08-10T06:18:27.830Z,99.90
2018-08-10T06:20:56.369Z,99.90
2018-08-10T06:23:24.864Z,99.90
2018-08-10T06:25:53.387Z,99.90
2018-08-10T06:28:22.006Z,99.90
2018-08-10T06:30:50.652Z,99.90
2018-08-10T06:33:19.173Z,99.90
2018-08-10T06:35:47.745Z,99.70
2018-08-10T06:38:16.244Z,99.90
2018-08-10T06:40:44.743Z,96.90
2018-08-10T06:43:13.285Z,96.00
2018-08-10T06:45:41.867Z,95.80
2018-08-10T06:48:10.532Z,92.60
2018-08-10T06:50:39.061Z,88.60
2018-08-10T06:53:07.631Z,85.70
2018-08-10T06:55:36.213Z,82.10
2018-08-10T06:58:05.198Z,79.90
2018-08-10T07:00:33.819Z,78.60
2018-08-10T07:03:02.240Z,77.10
2018-08-10T07:05:30.884Z,76.30
2018-08-10T07:07:59.416Z,72.30
2018-08-10T07:10:27.941Z,69.80
2018-08-10T07:12:56.454Z,70.50
2018-08-10T07:15:25.050Z,67.50
2018-08-10T07:17:53.594Z,67.60
2018-08-10T07:20:22.225Z,68.50
2018-08-10T07:22:50.785Z,68.10
2018-08-10T07:25:19.369Z,67.50
2018-08-10T07:27:47.981Z,66.10
2018-08-10T07:30:16.497Z,62.80
2018-08-10T07:32:45.049Z,63.40
2018-08-10T07:35:13.582Z,61.20
2018-08-10T07:37:42.094Z,64.30
2018-08-10T07:40:10.614Z,61.50
2018-08-10T07:42:39.118Z,64.70
2018-08-10T07:45:07.655Z,62.40
2018-08-10T07:47:36.190Z,60.10
2018-08-10T07:50:05.220Z,63.70
2018-08-10T07:52:33.732Z,62.30
2018-08-10T07:55:02.259Z,59.50
2018-08-10T07:57:30.863Z,59.40
2018-08-10T07:59:59.426Z,60.10
2018-08-10T08:02:28.059Z,60.80
2018-08-10T08:04:56.667Z,59.90
2018-08-10T08:07:25.169Z,60.10
2018-08-10T08:09:53.695Z,57.30
2018-08-10T08:12:57.318Z,58.70
2018-08-10T08:15:25.876Z,55.80
2018-08-10T08:17:54.472Z,55.30
2018-08-10T08:20:23.042Z,55.00
2018-08-10T08:22:59.553Z,53.80
2018-08-10T08:25:28.429Z,54.30
2018-08-10T08:27:57.017Z,52.70
2018-08-10T08:30:25.538Z,49.80
2018-08-10T08:32:54.079Z,48.60
2018-08-10T08:35:22.633Z,45.60
2018-08-10T08:37:51.154Z,49.10
2018-08-10T08:40:22.742Z,53.10
2018-08-10T08:42:51.815Z,49.30
2018-08-10T08:46:00.291Z,48.10
2018-08-10T08:48:30.236Z,50.60
2018-08-10T08:51:02.432Z,49.30
2018-08-10T08:53:31.009Z,45.30
2018-08-10T08:56:16.531Z,42.40
2018-08-10T08:58:46.274Z,42.10
2018-08-10T09:01:15.186Z,42.40
2018-08-10T09:05:02.009Z,40.70
2018-08-10T09:07:31.311Z,39.60
2018-08-10T09:15:46.211Z,34.20
2018-08-10T09:18:14.765Z,35.60
2018-08-10T09:20:43.310Z,34.60
2018-08-10T09:23:11.956Z,36.30
2018-08-10T09:25:40.501Z,40.90
2018-08-10T09:28:09.210Z,40.00
2018-08-10T09:30:37.857Z,35.90
2018-08-10T09:33:07.318Z,32.40
2018-08-10T09:35:35.866Z,35.50
2018-08-10T09:38:07.591Z,33.50
2018-08-10T09:40:36.123Z,33.20
2018-08-10T09:43:04.675Z,33.20
2018-08-10T09:45:33.217Z,32.50
2018-08-10T09:48:01.823Z,31.20
2018-08-10T09:50:30.356Z,30.90
2018-08-10T09:53:04.222Z,27.30
2018-08-10T09:55:37.992Z,30.10
2018-08-10T09:58:10.136Z,27.70
2018-08-10T10:00:44.055Z,26.30
2018-08-10T10:03:22.912Z,26.20
2018-08-10T10:05:52.402Z,28.00
2018-08-10T10:08:21.485Z,27.30
2018-08-10T10:10:50.080Z,28.10
2018-08-10T10:13:18.648Z,26.20
2018-08-10T10:15:47.203Z,27.70
2018-08-10T10:18:16.898Z,28.30
2018-08-10T10:20:46.360Z,28.60
2018-08-10T10:23:14.889Z,26.40
2018-08-10T10:25:43.483Z,25.70
2018-08-10T10:28:12.089Z,23.80
2018-08-10T10:30:40.685Z,25.40
2018-08-10T10:33:09.288Z,26.90
2018-08-10T10:35:37.805Z,27.60
2018-08-10T10:38:06.686Z,26.60
2018-08-10T10:40:35.234Z,27.10
2018-08-10T10:43:03.770Z,26.00
2018-08-10T10:45:32.303Z,25.20
2018-08-10T10:48:00.880Z,23.00
2018-08-10T10:50:29.422Z,24.40
2018-08-10T10:52:58.036Z,27.00
2018-08-10T10:55:26.688Z,26.70
2018-08-10T10:57:55.252Z,26.10
2018-08-10T11:00:23.812Z,25.60
2018-08-10T11:02:52.426Z,24.40
2018-08-10T11:05:21.004Z,23.70
2018-08-10T11:07:49.519Z,20.70
2018-08-10T11:10:19.204Z,20.60
2018-08-10T11:12:47.759Z,20.50
2018-08-10T11:15:16.283Z,19.20
2018-08-10T11:17:44.886Z,20.60
2018-08-10T11:20:13.932Z,20.90
2018-08-10T11:22:42.915Z,19.70
2018-08-10T11:25:12.986Z,19.50
2018-08-10T11:27:42.337Z,19.70
2018-08-10T11:30:11.233Z,21.00
2018-08-10T11:32:40.134Z,19.80
2018-08-10T11:35:09.300Z,21.80
2018-08-10T11:37:37.887Z,23.40
2018-08-10T11:40:09.696Z,25.40
2018-08-10T11:42:39.468Z,24.80
2018-08-10T11:45:11.348Z,21.60
2018-08-10T11:47:40.225Z,20.80
2018-08-10T11:50:08.824Z,20.00
2018-08-10T11:52:37.466Z,20.20
2018-08-10T11:55:07.058Z,19.10
2018-08-10T11:57:35.691Z,18.40
2018-08-10T12:00:05.204Z,16.90
2018-08-10T12:02:33.894Z,18.80
2018-08-10T12:05:02.416Z,17.90
2018-08-10T12:07:30.953Z,19.70
2018-08-10T12:10:00.416Z,18.10
2018-08-10T12:12:28.964Z,18.80
2018-08-10T12:14:57.466Z,19.20
2018-08-10T12:17:25.982Z,18.90
2018-08-10T12:19:54.490Z,18.50
2018-08-10T12:22:23.070Z,20.00
2018-08-10T12:24:51.674Z,25.80
2018-08-10T12:27:20.237Z,23.80
2018-08-10T12:29:48.778Z,22.00
2018-08-10T12:32:17.303Z,20.50
2018-08-10T12:34:45.994Z,20.60
2018-08-10T12:37:14.583Z,21.40
2018-08-10T12:39:43.176Z,20.70
2018-08-10T12:42:11.951Z,22.00
2018-08-10T12:44:40.479Z,21.70
2018-08-10T12:47:09.019Z,24.10
2018-08-10T12:49:37.603Z,20.10
2018-08-10T12:52:06.191Z,19.60
2018-08-10T12:54:34.726Z,17.90
2018-08-10T12:57:03.419Z,16.60
2018-08-10T12:59:31.999Z,17.70
2018-08-10T13:02:00.504Z,17.30
2018-08-10T13:04:29.035Z,15.90
2018-08-10T13:06:57.552Z,15.00
2018-08-10T13:09:26.112Z,15.50
2018-08-10T13:11:54.633Z,13.70
2018-08-10T13:14:23.202Z,15.50
2018-08-10T13:16:51.764Z,15.40
2018-08-10T13:19:20.309Z,15.20
2018-08-10T13:21:48.893Z,15.60
2018-08-10T13:24:17.406Z,16.20
2018-08-10T13:26:45.962Z,15.90
2018-08-10T13:29:14.479Z,17.20
2018-08-10T13:31:43.016Z,20.20
2018-08-10T13:34:11.554Z,23.80
2018-08-10T13:36:40.209Z,21.80
2018-08-10T13:39:10.826Z,19.70
2018-08-10T13:41:40.213Z,20.10
2018-08-10T13:44:08.840Z,21.20
2018-08-10T13:46:37.408Z,20.80
2018-08-10T13:49:06.006Z,17.10
2018-08-10T13:51:34.644Z,16.90
2018-08-10T13:54:03.264Z,19.80
2018-08-10T13:56:31.940Z,22.00
2018-08-10T13:59:00.525Z,17.40
2018-08-10T14:01:29.063Z,15.70
2018-08-10T14:03:57.607Z,15.80
2018-08-10T14:06:26.397Z,15.90
2018-08-10T14:08:54.928Z,17.40
2018-08-10T14:11:23.505Z,17.70
2018-08-10T14:13:52.065Z,17.20
2018-08-10T14:16:20.585Z,16.80
2018-08-10T14:18:49.200Z,15.90
2018-08-10T14:21:17.704Z,17.70
2018-08-10T14:23:46.352Z,16.40
2018-08-10T14:26:14.916Z,15.70
2018-08-10T14:28:43.443Z,16.60
2018-08-10T14:31:11.969Z,14.40
2018-08-10T14:33:40.533Z,13.20
2018-08-10T14:36:09.063Z,13.70
2018-08-10T14:38:37.691Z,13.10
2018-08-10T14:41:06.465Z,13.00
2018-08-10T14:43:35.029Z,12.70
2018-08-10T14:46:03.586Z,13.70
2018-08-10T14:48:32.159Z,14.70
2018-08-10T14:51:00.701Z,15.30
2018-08-10T14:53:29.318Z,13.80
2018-08-10T14:55:57.895Z,13.80
2018-08-10T14:58:26.480Z,13.70
2018-08-10T15:00:55.134Z,15.10
2018-08-10T15:03:23.673Z,16.20
2018-08-10T15:05:52.237Z,16.40
2018-08-10T15:08:20.784Z,15.80
2018-08-10T15:10:49.344Z,15.00
2018-08-10T15:13:18.057Z,16.20
2018-08-10T15:15:46.560Z,16.90
2018-08-10T15:18:15.157Z,18.20
2018-08-10T15:20:43.705Z,16.50
2018-08-10T15:23:12.290Z,15.00
2018-08-10T15:25:40.832Z,16.20
2018-08-10T15:28:09.463Z,20.30
2018-08-10T15:30:38.047Z,22.10
2018-08-10T15:33:06.958Z,23.20
2018-08-10T15:35:35.521Z,21.00
2018-08-10T15:38:04.116Z,17.80
2018-08-10T15:40:32.741Z,17.80
2018-08-10T15:43:01.401Z,19.80
2018-08-10T15:45:30.001Z,19.20
2018-08-10T15:47:58.542Z,18.70
2018-08-10T15:50:27.234Z,21.20
2018-08-10T15:52:55.814Z,23.70
2018-08-10T15:55:24.326Z,24.30
2018-08-10T15:57:52.939Z,24.10
2018-08-10T16:00:22.920Z,23.70
2018-08-10T16:02:51.508Z,23.70
2018-08-10T16:05:20.131Z,23.80
2018-08-10T16:07:48.674Z,24.50
2018-08-10T16:10:17.245Z,25.70
2018-08-10T16:12:45.999Z,26.00
2018-08-10T16:15:18.652Z,26.40
2018-08-10T16:17:47.498Z,26.70
2018-08-10T16:20:17.617Z,27.10
2018-08-10T16:22:46.310Z,25.70
2018-08-10T16:25:15.685Z,26.60
2018-08-10T16:27:44.907Z,26.80
2018-08-10T16:30:14.826Z,27.30
2018-08-10T16:32:44.539Z,27.10
2018-08-10T16:35:14.258Z,26.70
2018-08-10T16:37:43.993Z,27.00
2018-08-10T16:40:14.093Z,26.80
2018-08-10T16:42:43.071Z,26.80
2018-08-10T16:45:12.595Z,28.50
2018-08-10T16:47:41.778Z,27.40
2018-08-10T16:50:14.561Z,26.80
2018-08-10T16:52:43.796Z,27.80
2018-08-10T16:55:15.242Z,27.10
2018-08-10T16:57:44.734Z,27.10
2018-08-10T17:00:18.742Z,27.70
2018-08-10T17:02:47.942Z,26.90
2018-08-10T17:05:16.584Z,26.90
2018-08-10T17:07:46.008Z,27.20
2018-08-10T17:10:14.624Z,27.50
2018-08-10T17:12:44.412Z,27.50
2018-08-10T17:15:14.537Z,27.40
2018-08-10T17:17:44.187Z,26.50
2018-08-10T17:20:13.266Z,27.90
2018-08-10T17:22:42.637Z,27.60
2018-08-10T17:25:12.810Z,27.90
2018-08-10T17:27:41.353Z,28.60
2018-08-10T17:30:12.382Z,28.80
2018-08-10T17:32:40.934Z,28.50
2018-08-10T17:35:11.032Z,28.60
2018-08-10T17:37:39.880Z,29.00
2018-08-10T17:40:09.316Z,28.30
2018-08-10T17:42:38.370Z,27.50
2018-08-10T17:45:13.026Z,28.30
2018-08-10T17:47:41.596Z,29.10
2018-08-10T17:50:13.562Z,29.30
2018-08-10T17:52:45.533Z,30.20
2018-08-10T17:55:15.245Z,31.20
2018-08-10T17:57:44.122Z,32.20
2018-08-10T18:00:15.702Z,32.50
2018-08-10T18:02:44.724Z,32.30
2018-08-10T18:05:14.375Z,32.40
2018-08-10T18:07:43.032Z,32.60
2018-08-10T18:10:12.498Z,31.60
2018-08-10T18:12:41.678Z,32.60
2018-08-10T18:15:12.367Z,32.10
2018-08-10T18:17:41.596Z,31.70
2018-08-10T18:20:14.537Z,32.40
2018-08-10T18:22:44.711Z,32.00
2018-08-10T18:25:14.416Z,32.60
2018-08-10T18:27:43.639Z,33.70
2018-08-10T18:30:15.790Z,33.40
2018-08-10T18:32:44.693Z,34.20
2018-08-10T18:35:13.253Z,34.50
2018-08-10T18:37:42.659Z,35.50
2018-08-10T18:40:12.944Z,35.10
2018-08-10T18:42:42.602Z,35.70
2018-08-10T18:45:12.651Z,36.60
2018-08-10T18:47:41.533Z,37.00
2018-08-10T18:50:11.960Z,36.30
2018-08-10T18:52:40.743Z,36.60
2018-08-10T18:55:11.024Z,36.90
2018-08-10T18:57:40.158Z,37.20
2018-08-10T19:00:11.263Z,37.00
2018-08-10T19:02:40.048Z,37.90
2018-08-10T19:05:10.835Z,37.60
2018-08-10T19:07:39.505Z,37.50
2018-08-10T19:10:09.239Z,38.40
2018-08-10T19:12:38.409Z,39.30
2018-08-10T19:15:10.619Z,38.40
2018-08-10T19:17:39.611Z,39.30
2018-08-10T19:20:09.283Z,39.40
2018-08-10T19:22:38.406Z,39.40
2018-08-10T19:25:08.650Z,38.90
2018-08-10T19:27:37.228Z,39.70
2018-08-10T19:30:08.621Z,39.60
2018-08-10T19:32:37.214Z,40.90
2018-08-10T19:35:06.186Z,40.80
2018-08-10T19:37:34.798Z,41.10
2018-08-10T19:40:03.334Z,41.80
2018-08-10T19:42:31.861Z,41.50
2018-08-10T19:45:00.399Z,41.70
2018-08-10T19:47:29.052Z,41.70
2018-08-10T19:49:57.591Z,42.70
2018-08-10T19:52:26.294Z,41.70
2018-08-10T19:54:54.841Z,42.40
2018-08-10T19:57:23.384Z,43.50
2018-08-10T19:59:53.124Z,42.90
2018-08-10T20:02:21.637Z,42.80
2018-08-10T20:04:50.258Z,41.80
2018-08-10T20:07:18.836Z,44.20
2018-08-10T20:09:47.402Z,43.10
2018-08-10T20:12:15.933Z,43.70
2018-08-10T20:14:44.599Z,43.50
2018-08-10T20:17:13.153Z,44.50
2018-08-10T20:19:41.710Z,43.50
2018-08-10T20:22:16.972Z,42.90
2018-08-10T20:24:46.517Z,42.60
2018-08-10T20:27:15.068Z,42.50
2018-08-10T20:29:43.688Z,43.20
2018-08-10T20:32:12.202Z,42.50
2018-08-10T20:34:40.746Z,41.80
2018-08-10T20:37:09.313Z,42.30
2018-08-10T20:39:37.857Z,42.80
2018-08-10T20:42:06.639Z,44.30
2018-08-10T20:44:35.218Z,42.80
2018-08-10T20:47:03.876Z,43.30
2018-08-10T20:49:32.421Z,43.30
2018-08-10T20:52:01.027Z,43.10
2018-08-10T20:54:29.581Z,43.80
2018-08-10T20:56:58.186Z,42.80
2018-08-10T20:59:26.721Z,43.60
2018-08-10T21:01:55.251Z,42.40
2018-08-10T21:04:23.929Z,42.40
2018-08-10T21:06:52.544Z,43.30
2018-08-10T21:09:21.092Z,42.60
2018-08-10T21:11:49.636Z,42.00
2018-08-10T21:14:18.159Z,43.30
2018-08-10T21:16:46.717Z,42.60
2018-08-10T21:19:15.292Z,43.70
2018-08-10T21:21:43.783Z,42.50
2018-08-10T21:24:12.307Z,43.50
2018-08-10T21:26:40.899Z,44.30
2018-08-10T21:29:09.453Z,44.50
2018-08-10T21:31:37.970Z,44.90
2018-08-10T21:34:06.512Z,44.60
2018-08-10T21:36:35.080Z,44.30
2018-08-10T21:39:04.641Z,44.00
2018-08-10T21:41:33.167Z,44.70
2018-08-10T21:44:01.735Z,44.50
2018-08-10T21:46:30.297Z,45.00
2018-08-10T21:48:58.868Z,44.90
2018-08-10T21:51:27.453Z,45.60
2018-08-10T21:53:56.464Z,45.30
2018-08-10T21:56:25.033Z,45.40
2018-08-10T21:58:53.665Z,45.20
2018-08-10T22:01:22.320Z,45.70
2018-08-10T22:03:50.844Z,46.70
2018-08-10T22:06:19.416Z,47.40
2018-08-10T22:08:47.944Z,49.10
2018-08-10T22:11:16.559Z,49.50
2018-08-10T22:13:50.492Z,48.60
2018-08-10T22:16:24.462Z,48.40
2018-08-10T22:18:58.395Z,48.90
2018-08-10T22:21:26.968Z,47.90
2018-08-10T22:23:55.491Z,47.60
2018-08-10T22:26:24.067Z,48.20
2018-08-10T22:28:52.628Z,49.10
2018-08-10T22:31:21.154Z,48.70
2018-08-10T22:33:49.718Z,49.00
2018-08-10T22:36:18.214Z,48.70
2018-08-10T22:38:46.761Z,49.20
2018-08-10T22:41:15.322Z,48.40
2018-08-10T22:43:43.819Z,48.20
2018-08-10T22:46:12.369Z,48.60
2018-08-10T22:48:40.949Z,48.50
2018-08-10T22:51:09.588Z,48.90
2018-08-10T22:53:38.166Z,48.50
2018-08-10T22:56:07.082Z,52.90
2018-08-10T22:58:35.742Z,57.70
2018-08-10T23:01:04.555Z,61.00
2018-08-10T23:03:33.071Z,64.00
2018-08-10T23:06:01.702Z,66.30
2018-08-10T23:08:30.321Z,69.30
2018-08-10T23:10:58.840Z,71.40
2018-08-10T23:13:27.394Z,73.90
2018-08-10T23:15:56.018Z,76.00
2018-08-10T23:18:24.600Z,79.30
2018-08-10T23:20:53.185Z,83.60
2018-08-10T23:23:21.761Z,87.30
2018-08-10T23:25:50.418Z,91.50
2018-08-10T23:28:19.154Z,95.90
2018-08-10T23:30:47.724Z,99.90
2018-08-10T23:33:16.266Z,99.90
2018-08-10T23:35:44.819Z,99.90
2018-08-10T23:38:13.361Z,99.90
2018-08-10T23:40:41.934Z,99.90
2018-08-10T23:43:10.459Z,99.90
2018-08-10T23:45:38.985Z,99.90
2018-08-10T23:48:08.170Z,99.90
2018-08-10T23:50:36.732Z,99.90
2018-08-10T23:53:05.290Z,99.90
2018-08-10T23:55:33.908Z,99.90
2018-08-10T23:58:02.519Z,99.90
